Tacheng, China
Current Conditions -  °F | °C
As of 5:00 PM on Friday 19 Dec 2014 (Local Time) from UASK Reporting Station
Haze Haze  
Wind Chill:   Ceiling: Unl
Heat Index:   Visibility: 3mi
Dew Point:   Wind: 0mph
Humidity: 85%   Direction: NA
Pressure: 30.53"   Gusts: NA
Location:  46.73°N, 83°E
Report Text: UASK 190900Z 00000MPS 5000 BR SKC M15/M17 Q1034 R30/820248NOSIG RMK QFE750/1000
Loading
Personal Weather Stations






























Interactive Weather Map New forecast layout! Learn more

10-Day Weather Forecast

Advertisements
Track Severe Weather on mobile